createdAt,value
2023-05-13T00:01:45.325Z,50.37
2023-05-13T00:06:46.778Z,50.44
2023-05-13T00:11:48.215Z,50.58
2023-05-13T00:16:49.782Z,51.19
2023-05-13T00:21:51.405Z,51.44
2023-05-13T00:26:52.839Z,50.77
2023-05-13T00:31:54.281Z,50.96
2023-05-13T00:36:55.703Z,50.97
2023-05-13T00:41:57.152Z,51.10
2023-05-13T00:46:59.302Z,51.51
2023-05-13T00:52:01.637Z,51.12
2023-05-13T00:57:03.153Z,51.15
2023-05-13T01:02:20.563Z,51.47
2023-05-13T01:07:31.203Z,51.60
2023-05-13T01:12:36.110Z,52.00
2023-05-13T01:17:46.543Z,52.37
2023-05-13T01:22:48.090Z,52.93
2023-05-13T01:27:50.427Z,53.19
2023-05-13T01:32:53.020Z,53.54
2023-05-13T01:37:57.192Z,53.81
2023-05-13T01:42:58.669Z,54.26
2023-05-13T01:48:00.274Z,54.32
2023-05-13T01:53:01.958Z,54.79
2023-05-13T01:58:03.471Z,54.85
2023-05-13T02:03:04.950Z,55.17
2023-05-13T02:08:07.647Z,55.42
2023-05-13T02:13:09.206Z,55.84
2023-05-13T02:18:10.822Z,55.76
2023-05-13T02:23:12.617Z,56.50
2023-05-13T02:28:14.398Z,56.21
2023-05-13T02:33:16.021Z,56.18
2023-05-13T02:38:17.436Z,56.09
2023-05-13T02:43:19.504Z,55.92
2023-05-13T02:48:21.000Z,56.13
2023-05-13T02:53:23.168Z,56.06
2023-05-13T02:58:24.621Z,56.14
2023-05-13T03:03:26.332Z,56.32
2023-05-13T03:08:27.882Z,56.37
2023-05-13T03:13:29.369Z,56.71
2023-05-13T03:18:32.763Z,56.97
2023-05-13T03:23:34.283Z,56.91
2023-05-13T03:28:35.922Z,57.38
2023-05-13T03:33:37.515Z,57.91
2023-05-13T03:38:38.973Z,57.35
2023-05-13T03:43:40.517Z,57.52
2023-05-13T03:48:42.288Z,57.56
2023-05-13T03:53:43.787Z,57.50
2023-05-13T03:58:45.413Z,57.86
2023-05-13T04:03:46.873Z,57.71
2023-05-13T04:08:49.357Z,57.61
2023-05-13T04:13:51.095Z,57.44
2023-05-13T04:18:52.533Z,57.37
2023-05-13T04:23:54.477Z,56.97
2023-05-13T04:28:55.897Z,57.15
2023-05-13T04:33:57.328Z,56.82
2023-05-13T04:38:58.790Z,57.22
2023-05-13T04:44:00.286Z,56.96
2023-05-13T04:49:01.702Z,56.21
2023-05-13T04:54:03.555Z,55.72
2023-05-13T04:59:05.322Z,56.02
2023-05-13T05:04:06.818Z,55.20
2023-05-13T05:09:09.648Z,54.88
2023-05-13T05:14:11.233Z,54.57
2023-05-13T05:19:12.767Z,54.49
2023-05-13T05:24:14.220Z,54.60
2023-05-13T05:29:15.701Z,54.69
2023-05-13T05:34:17.430Z,54.10
2023-05-13T05:39:19.009Z,54.10
2023-05-13T05:44:20.536Z,52.99
2023-05-13T05:49:21.961Z,52.19
2023-05-13T05:54:23.466Z,52.67
2023-05-13T05:59:24.878Z,52.32
2023-05-13T06:04:26.298Z,53.11
2023-05-13T06:09:27.749Z,52.50
2023-05-13T06:14:29.193Z,51.84
2023-05-13T06:19:30.618Z,51.69
2023-05-13T06:24:32.110Z,51.50
2023-05-13T06:29:33.562Z,51.22
2023-05-13T06:34:35.072Z,50.38
2023-05-13T06:39:36.494Z,51.01
2023-05-13T06:44:39.789Z,49.52
2023-05-13T06:49:41.361Z,51.04
2023-05-13T06:54:42.803Z,50.54
2023-05-13T06:59:44.821Z,50.22
2023-05-13T07:04:46.781Z,50.50
2023-05-13T07:09:48.184Z,48.78
2023-05-13T07:14:49.681Z,49.25
2023-05-13T07:19:51.580Z,50.17
2023-05-13T07:24:53.071Z,49.60
2023-05-13T07:29:54.526Z,49.42
2023-05-13T07:34:55.946Z,49.61
2023-05-13T07:39:57.721Z,49.49
2023-05-13T07:44:59.193Z,49.21
2023-05-13T07:50:00.723Z,49.04
2023-05-13T07:55:02.472Z,48.43
2023-05-13T08:00:04.656Z,48.09
2023-05-13T08:05:06.781Z,48.49
2023-05-13T08:10:08.496Z,48.24
2023-05-13T08:15:12.004Z,48.33
2023-05-13T08:20:15.136Z,47.96
2023-05-13T08:25:16.733Z,48.25
2023-05-13T08:30:18.221Z,48.33
2023-05-13T08:35:19.921Z,47.72
2023-05-13T08:40:21.481Z,47.44
2023-05-13T08:45:27.067Z,47.07
2023-05-13T08:50:29.456Z,46.30
2023-05-13T08:55:30.883Z,46.40
2023-05-13T09:00:34.732Z,48.15
2023-05-13T09:05:38.843Z,45.17
2023-05-13T09:10:40.614Z,44.14
2023-05-13T09:15:45.495Z,43.48
2023-05-13T09:20:48.090Z,42.66
2023-05-13T09:25:49.535Z,42.85
2023-05-13T09:30:54.903Z,43.95
2023-05-13T09:35:56.414Z,44.81
2023-05-13T09:40:59.735Z,45.26
2023-05-13T09:46:03.287Z,45.84
2023-05-13T09:51:05.023Z,45.13
2023-05-13T09:56:10.254Z,43.04
2023-05-13T10:01:11.799Z,41.46
2023-05-13T10:06:17.967Z,41.02
2023-05-13T10:11:19.909Z,42.64
2023-05-13T10:16:23.676Z,40.34
2023-05-13T10:21:28.489Z,38.78
2023-05-13T10:26:30.346Z,39.29
2023-05-13T10:31:32.167Z,39.07
2023-05-13T10:37:08.576Z,38.04
2023-05-13T10:42:42.657Z,38.81
2023-05-13T10:47:44.243Z,38.77
2023-05-13T10:52:49.024Z,39.41
2023-05-13T10:58:11.992Z,38.48
2023-05-13T11:03:14.821Z,39.09
2023-05-13T11:08:43.088Z,38.58
2023-05-13T11:13:45.221Z,36.70
2023-05-13T11:18:46.853Z,37.72
2023-05-13T11:24:05.637Z,38.02
2023-05-13T11:29:07.360Z,38.71
2023-05-13T11:34:09.882Z,38.05
2023-05-13T11:39:16.712Z,37.24
2023-05-13T11:44:20.415Z,37.97
2023-05-13T11:49:44.522Z,37.26
2023-05-13T11:54:53.447Z,37.82
2023-05-13T11:59:56.468Z,38.72
2023-05-13T12:05:04.411Z,38.43
2023-05-13T12:10:07.195Z,38.44
2023-05-13T12:15:14.418Z,36.54
2023-05-13T12:20:18.479Z,36.43
2023-05-13T12:25:35.631Z,36.81
2023-05-13T12:30:39.067Z,35.91
2023-05-13T12:35:40.777Z,37.43
2023-05-13T12:40:42.223Z,37.39
2023-05-13T12:45:45.353Z,37.35
2023-05-13T12:50:47.924Z,36.72
2023-05-13T12:55:49.374Z,35.54
2023-05-13T13:00:50.883Z,35.98
2023-05-13T13:05:52.430Z,37.47
2023-05-13T13:10:53.943Z,36.45
2023-05-13T13:15:55.560Z,37.50
2023-05-13T13:20:57.057Z,39.70
2023-05-13T13:25:59.276Z,41.13
2023-05-13T13:31:00.821Z,40.08
2023-05-13T13:36:02.382Z,40.75
2023-05-13T13:41:03.820Z,40.54
2023-05-13T13:46:05.397Z,41.45
2023-05-13T13:51:06.868Z,40.12
2023-05-13T13:56:08.512Z,40.04
2023-05-13T14:01:09.961Z,37.42
2023-05-13T14:06:11.436Z,37.15
2023-05-13T14:11:13.815Z,38.32
2023-05-13T14:16:15.342Z,39.09
2023-05-13T14:21:17.203Z,38.79
2023-05-13T14:26:18.662Z,39.63
2023-05-13T14:31:20.180Z,40.06
2023-05-13T14:36:22.523Z,38.78
2023-05-13T14:41:25.501Z,35.60
2023-05-13T14:46:27.760Z,34.83
2023-05-13T14:51:29.314Z,34.17
2023-05-13T14:56:30.830Z,33.08
2023-05-13T15:01:32.477Z,35.10
2023-05-13T15:06:34.135Z,34.52
2023-05-13T15:11:58.208Z,34.48
2023-05-13T15:17:00.073Z,35.57
2023-05-13T15:22:01.599Z,36.28
2023-05-13T15:27:03.711Z,35.87
2023-05-13T15:32:06.401Z,35.47
2023-05-13T15:37:07.911Z,36.43
2023-05-13T15:42:09.373Z,36.19
2023-05-13T15:47:10.838Z,36.39
2023-05-13T15:52:12.419Z,36.56
2023-05-13T15:57:14.956Z,36.80
2023-05-13T16:02:18.381Z,37.11
2023-05-13T16:07:19.827Z,36.60
2023-05-13T16:12:21.556Z,37.24
2023-05-13T16:17:22.997Z,37.23
2023-05-13T16:22:37.805Z,37.45
2023-05-13T16:27:39.922Z,37.78
2023-05-13T16:32:41.401Z,37.87
2023-05-13T16:37:42.835Z,38.17
2023-05-13T16:42:44.317Z,38.12
2023-05-13T16:47:45.902Z,38.33
2023-05-13T16:52:47.511Z,38.24
2023-05-13T16:57:49.023Z,38.63
2023-05-13T17:02:50.562Z,38.23
2023-05-13T17:07:52.005Z,38.37
2023-05-13T17:12:53.439Z,38.91
2023-05-13T17:17:54.857Z,38.81
2023-05-13T17:22:56.342Z,38.92
2023-05-13T17:27:57.820Z,38.93
2023-05-13T17:32:59.317Z,39.28
2023-05-13T17:38:00.794Z,39.39
2023-05-13T17:43:03.708Z,39.47
2023-05-13T17:48:05.636Z,39.66
2023-05-13T17:53:07.145Z,39.58
2023-05-13T17:58:08.573Z,39.98
2023-05-13T18:03:10.223Z,40.42
2023-05-13T18:08:11.694Z,41.29
2023-05-13T18:13:13.256Z,41.57
2023-05-13T18:18:16.191Z,42.66
2023-05-13T18:23:18.013Z,43.32
2023-05-13T18:28:19.433Z,44.02
2023-05-13T18:33:21.701Z,45.03
2023-05-13T18:38:23.542Z,45.94
2023-05-13T18:43:25.206Z,46.83
2023-05-13T18:48:26.645Z,47.76
2023-05-13T18:53:28.147Z,48.28
2023-05-13T18:58:29.577Z,48.84
2023-05-13T19:03:31.433Z,48.69
2023-05-13T19:08:32.960Z,49.29
2023-05-13T19:13:46.120Z,49.47
2023-05-13T19:18:49.003Z,49.73
2023-05-13T19:23:50.593Z,50.16
2023-05-13T19:28:52.017Z,50.70
2023-05-13T19:33:53.696Z,50.82
2023-05-13T19:38:55.655Z,50.65
2023-05-13T19:43:57.135Z,50.67
2023-05-13T19:48:58.564Z,50.94
2023-05-13T19:54:00.068Z,51.16
2023-05-13T19:59:01.496Z,51.09
2023-05-13T20:04:03.447Z,51.05
2023-05-13T20:09:05.845Z,51.64
2023-05-13T20:14:07.652Z,52.00
2023-05-13T20:19:09.910Z,52.93
2023-05-13T20:24:11.486Z,52.65
2023-05-13T20:29:12.905Z,52.64
2023-05-13T20:34:15.237Z,53.02
2023-05-13T20:39:16.731Z,53.42
2023-05-13T20:44:18.214Z,53.50
2023-05-13T20:49:19.983Z,53.83
2023-05-13T20:54:21.593Z,53.92
2023-05-13T20:59:23.058Z,53.97
2023-05-13T21:04:27.174Z,53.76
2023-05-13T21:09:28.628Z,55.20
2023-05-13T21:14:30.037Z,54.19
2023-05-13T21:19:31.574Z,54.81
2023-05-13T21:24:33.580Z,55.16
2023-05-13T21:29:34.992Z,55.38
2023-05-13T21:34:36.510Z,55.47
2023-05-13T21:39:37.976Z,55.45
2023-05-13T21:44:40.891Z,55.29
2023-05-13T21:49:42.361Z,55.32
2023-05-13T21:54:43.812Z,55.45
2023-05-13T21:59:45.305Z,55.68
2023-05-13T22:04:46.781Z,55.74
2023-05-13T22:09:50.317Z,56.06
2023-05-13T22:14:52.705Z,56.61
2023-05-13T22:19:54.143Z,56.63
2023-05-13T22:24:55.588Z,56.83
2023-05-13T22:29:56.997Z,56.86
2023-05-13T22:34:58.404Z,57.01
2023-05-13T22:39:59.870Z,57.36
2023-05-13T22:45:01.287Z,57.47
2023-05-13T22:50:04.182Z,57.44
2023-05-13T22:55:06.455Z,57.86
2023-05-13T23:00:08.802Z,58.13
2023-05-13T23:05:10.403Z,58.19
2023-05-13T23:10:11.865Z,58.10
2023-05-13T23:15:15.866Z,58.14
2023-05-13T23:20:17.453Z,58.56
2023-05-13T23:25:20.095Z,58.72
2023-05-13T23:30:21.951Z,59.13
2023-05-13T23:35:23.548Z,58.92
2023-05-13T23:40:25.235Z,59.69
2023-05-13T23:45:26.871Z,59.42
2023-05-13T23:50:28.307Z,59.60
2023-05-13T23:55:29.791Z,59.62
